sensor_id;sensor_type;location;lat;lon;timestamp;pressure;altitude;pressure_sealevel;temperature;humidity
78890;BME280;68279;48.964;14.502;2023-02-28T00:00:06;97860.31;;;20.60;37.35
78890;BME280;68279;48.964;14.502;2023-02-28T00:02:37;97861.13;;;20.60;37.17
78890;BME280;68279;48.964;14.502;2023-02-28T00:05:04;97862.25;;;20.59;37.19
78890;BME280;68279;48.964;14.502;2023-02-28T00:07:30;97859.81;;;20.58;37.12
78890;BME280;68279;48.964;14.502;2023-02-28T00:09:56;97860.16;;;20.56;36.91
78890;BME280;68279;48.964;14.502;2023-02-28T00:12:22;97853.13;;;20.55;36.90
78890;BME280;68279;48.964;14.502;2023-02-28T00:14:48;97857.75;;;20.55;36.61
78890;BME280;68279;48.964;14.502;2023-02-28T00:17:14;97850.72;;;20.54;36.32
78890;BME280;68279;48.964;14.502;2023-02-28T00:19:40;97861.94;;;20.52;36.26
78890;BME280;68279;48.964;14.502;2023-02-28T00:22:05;97855.03;;;20.55;36.19
78890;BME280;68279;48.964;14.502;2023-02-28T00:24:31;97851.88;;;20.53;36.17
78890;BME280;68279;48.964;14.502;2023-02-28T00:26:56;97856.16;;;20.54;36.27
78890;BME280;68279;48.964;14.502;2023-02-28T00:29:22;97842.44;;;20.50;37.16
78890;BME280;68279;48.964;14.502;2023-02-28T00:31:48;97843.53;;;20.49;37.91
78890;BME280;68279;48.964;14.502;2023-02-28T00:34:13;97851.69;;;20.49;38.14
78890;BME280;68279;48.964;14.502;2023-02-28T00:36:39;97841.94;;;20.48;38.09
78890;BME280;68279;48.964;14.502;2023-02-28T00:39:06;97850.09;;;20.48;38.66
78890;BME280;68279;48.964;14.502;2023-02-28T00:41:31;97840.81;;;20.49;38.65
78890;BME280;68279;48.964;14.502;2023-02-28T00:43:57;97838.28;;;20.53;38.67
78890;BME280;68279;48.964;14.502;2023-02-28T00:46:22;97841.00;;;20.53;39.06
78890;BME280;68279;48.964;14.502;2023-02-28T00:48:48;97844.84;;;20.52;38.75
78890;BME280;68279;48.964;14.502;2023-02-28T00:51:14;97844.03;;;20.51;39.04
78890;BME280;68279;48.964;14.502;2023-02-28T00:53:39;97831.25;;;20.52;39.30
78890;BME280;68279;48.964;14.502;2023-02-28T00:56:05;97841.78;;;20.53;39.40
78890;BME280;68279;48.964;14.502;2023-02-28T00:58:31;97841.47;;;20.55;39.67
78890;BME280;68279;48.964;14.502;2023-02-28T01:00:56;97829.78;;;20.54;39.58
78890;BME280;68279;48.964;14.502;2023-02-28T01:03:22;97833.63;;;20.53;39.76
78890;BME280;68279;48.964;14.502;2023-02-28T01:05:48;97831.56;;;20.50;39.91
78890;BME280;68279;48.964;14.502;2023-02-28T01:08:14;97831.88;;;20.49;40.01
78890;BME280;68279;48.964;14.502;2023-02-28T01:10:40;97828.38;;;20.48;39.98
78890;BME280;68279;48.964;14.502;2023-02-28T01:13:06;97825.19;;;20.46;40.10
78890;BME280;68279;48.964;14.502;2023-02-28T01:15:31;97830.78;;;20.50;40.13
78890;BME280;68279;48.964;14.502;2023-02-28T01:17:58;97828.69;;;20.47;40.38
78890;BME280;68279;48.964;14.502;2023-02-28T01:20:23;97825.34;;;20.50;38.39
78890;BME280;68279;48.964;14.502;2023-02-28T01:22:49;97821.81;;;20.49;38.48
78890;BME280;68279;48.964;14.502;2023-02-28T01:25:15;97815.56;;;20.49;38.18
78890;BME280;68279;48.964;14.502;2023-02-28T01:27:42;97824.84;;;20.48;38.74
78890;BME280;68279;48.964;14.502;2023-02-28T01:30:08;97818.63;;;20.47;38.94
78890;BME280;68279;48.964;14.502;2023-02-28T01:32:35;97813.84;;;20.44;39.39
78890;BME280;68279;48.964;14.502;2023-02-28T01:35:01;97821.66;;;20.46;39.36
78890;BME280;68279;48.964;14.502;2023-02-28T01:37:27;97813.50;;;20.46;39.65
78890;BME280;68279;48.964;14.502;2023-02-28T01:39:53;97814.31;;;20.46;39.79
78890;BME280;68279;48.964;14.502;2023-02-28T01:42:19;97812.72;;;20.45;39.62
78890;BME280;68279;48.964;14.502;2023-02-28T01:47:20;97810.81;;;20.46;39.97
78890;BME280;68279;48.964;14.502;2023-02-28T01:49:47;97810.00;;;20.45;40.03
78890;BME280;68279;48.964;14.502;2023-02-28T01:52:14;97805.38;;;20.46;40.24
78890;BME280;68279;48.964;14.502;2023-02-28T01:54:46;97797.69;;;20.48;40.24
78890;BME280;68279;48.964;14.502;2023-02-28T01:57:17;97800.72;;;20.46;40.44
78890;BME280;68279;48.964;14.502;2023-02-28T01:59:54;97804.56;;;20.45;40.54
78890;BME280;68279;48.964;14.502;2023-02-28T02:02:24;97808.88;;;20.46;40.52
78890;BME280;68279;48.964;14.502;2023-02-28T02:04:55;97800.41;;;20.48;40.69
78890;BME280;68279;48.964;14.502;2023-02-28T02:07:23;97806.63;;;20.48;40.57
78890;BME280;68279;48.964;14.502;2023-02-28T02:10:00;97807.28;;;20.45;40.74
78890;BME280;68279;48.964;14.502;2023-02-28T02:17:51;97804.09;;;20.43;40.64
78890;BME280;68279;48.964;14.502;2023-02-28T02:21:12;97799.47;;;20.44;38.72
78890;BME280;68279;48.964;14.502;2023-02-28T02:37:45;97790.97;;;20.36;39.68
78890;BME280;68279;48.964;14.502;2023-02-28T02:42:58;97802.31;;;20.38;40.07
78890;BME280;68279;48.964;14.502;2023-02-28T02:45:32;97802.97;;;20.35;40.10
78890;BME280;68279;48.964;14.502;2023-02-28T02:48:02;97801.84;;;20.36;39.94
78890;BME280;68279;48.964;14.502;2023-02-28T02:50:36;97800.41;;;20.39;40.09
78890;BME280;68279;48.964;14.502;2023-02-28T02:53:04;97799.28;;;20.40;40.25
78890;BME280;68279;48.964;14.502;2023-02-28T02:55:34;97797.69;;;20.39;40.57
78890;BME280;68279;48.964;14.502;2023-02-28T02:58:04;97805.81;;;20.39;40.59
78890;BME280;68279;48.964;14.502;2023-02-28T03:00:37;97807.75;;;20.38;40.85
78890;BME280;68279;48.964;14.502;2023-02-28T03:03:05;97805.81;;;20.39;40.77
78890;BME280;68279;48.964;14.502;2023-02-28T03:05:52;97805.50;;;20.41;40.88
78890;BME280;68279;48.964;14.502;2023-02-28T03:08:18;97801.97;;;20.40;40.86
78890;BME280;68279;48.964;14.502;2023-02-28T03:10:45;97813.19;;;20.38;40.83
78890;BME280;68279;48.964;14.502;2023-02-28T03:21:13;97826.78;;;20.38;38.71
78890;BME280;68279;48.964;14.502;2023-02-28T03:24:06;97824.84;;;20.39;38.54
78890;BME280;68279;48.964;14.502;2023-02-28T03:26:38;97820.88;;;20.36;38.29
78890;BME280;68279;48.964;14.502;2023-02-28T03:29:15;97823.13;;;20.34;39.17
78890;BME280;68279;48.964;14.502;2023-02-28T03:35:41;97811.13;;;20.35;39.66
78890;BME280;68279;48.964;14.502;2023-02-28T03:38:05;97814.50;;;20.32;39.98
78890;BME280;68279;48.964;14.502;2023-02-28T03:40:34;97820.72;;;20.33;39.94
78890;BME280;68279;48.964;14.502;2023-02-28T03:43:08;97823.13;;;20.34;40.14
78890;BME280;68279;48.964;14.502;2023-02-28T03:45:37;97820.72;;;20.33;40.48
78890;BME280;68279;48.964;14.502;2023-02-28T03:48:15;97822.31;;;20.34;40.59
78890;BME280;68279;48.964;14.502;2023-02-28T03:50:45;97821.84;;;20.32;40.56
78890;BME280;68279;48.964;14.502;2023-02-28T03:53:18;97820.06;;;20.36;40.40
78890;BME280;68279;48.964;14.502;2023-02-28T03:55:48;97819.94;;;20.32;40.69
78890;BME280;68279;48.964;14.502;2023-02-28T03:58:22;97816.41;;;20.32;40.64
78890;BME280;68279;48.964;14.502;2023-02-28T04:00:57;97822.31;;;20.34;40.78
78890;BME280;68279;48.964;14.502;2023-02-28T04:03:24;97818.00;;;20.33;40.91
78890;BME280;68279;48.964;14.502;2023-02-28T04:05:54;97820.88;;;20.36;41.02
78890;BME280;68279;48.964;14.502;2023-02-28T04:08:22;97824.56;;;20.32;41.19
78890;BME280;68279;48.964;14.502;2023-02-28T04:10:56;97819.94;;;20.32;41.11
78890;BME280;68279;48.964;14.502;2023-02-28T04:13:23;97823.91;;;20.35;40.96
78890;BME280;68279;48.964;14.502;2023-02-28T04:15:49;97822.00;;;20.35;41.11
78890;BME280;68279;48.964;14.502;2023-02-28T04:18:14;97821.53;;;20.33;40.79
78890;BME280;68279;48.964;14.502;2023-02-28T04:20:40;97828.09;;;20.32;39.03
78890;BME280;68279;48.964;14.502;2023-02-28T04:23:05;97823.44;;;20.33;38.47
78890;BME280;68279;48.964;14.502;2023-02-28T04:25:31;97819.13;;;20.32;38.55
78890;BME280;68279;48.964;14.502;2023-02-28T04:27:57;97822.16;;;20.30;39.44
78890;BME280;68279;48.964;14.502;2023-02-28T04:30:22;97815.78;;;20.26;39.98
78890;BME280;68279;48.964;14.502;2023-02-28T04:32:48;97814.00;;;20.30;39.60
78890;BME280;68279;48.964;14.502;2023-02-28T04:35:14;97814.66;;;20.27;39.78
78890;BME280;68279;48.964;14.502;2023-02-28T04:37:39;97815.47;;;20.28;40.07
78890;BME280;68279;48.964;14.502;2023-02-28T04:40:05;97815.47;;;20.28;40.24
78890;BME280;68279;48.964;14.502;2023-02-28T04:42:31;97821.22;;;20.26;40.58
78890;BME280;68279;48.964;14.502;2023-02-28T04:45:02;97825.06;;;20.25;40.58
78890;BME280;68279;48.964;14.502;2023-02-28T04:47:28;97815.78;;;20.26;40.76
78890;BME280;68279;48.964;14.502;2023-02-28T04:49:53;97815.63;;;20.23;40.87
78890;BME280;68279;48.964;14.502;2023-02-28T04:52:19;97818.50;;;20.26;40.71
78890;BME280;68279;48.964;14.502;2023-02-28T04:54:45;97813.41;;;20.25;41.01
78890;BME280;68279;48.964;14.502;2023-02-28T04:57:10;97804.44;;;20.24;40.80
78890;BME280;68279;48.964;14.502;2023-02-28T04:59:36;97816.41;;;20.32;40.65
78890;BME280;68279;48.964;14.502;2023-02-28T05:02:20;97810.03;;;20.28;40.99
78890;BME280;68279;48.964;14.502;2023-02-28T05:04:46;97810.03;;;20.28;41.23
78890;BME280;68279;48.964;14.502;2023-02-28T05:07:11;97811.28;;;20.30;40.85
78890;BME280;68279;48.964;14.502;2023-02-28T05:09:37;97806.03;;;20.34;41.04
78890;BME280;68279;48.964;14.502;2023-02-28T05:12:03;97806.81;;;20.34;41.23
78890;BME280;68279;48.964;14.502;2023-02-28T05:14:28;97808.88;;;20.37;41.35
78890;BME280;68279;48.964;14.502;2023-02-28T05:16:54;97813.97;;;20.39;40.98
78890;BME280;68279;48.964;14.502;2023-02-28T05:19:19;97812.38;;;20.38;40.83
78890;BME280;68279;48.964;14.502;2023-02-28T05:21:54;97818.78;;;20.42;40.32
78890;BME280;68279;48.964;14.502;2023-02-28T05:24:20;97820.88;;;20.45;38.81
78890;BME280;68279;48.964;14.502;2023-02-28T05:26:49;97809.34;;;20.48;39.60
78890;BME280;68279;48.964;14.502;2023-02-28T05:29:16;97821.81;;;20.49;39.77
78890;BME280;68279;48.964;14.502;2023-02-28T06:08:44;97815.44;;;20.83;41.74
78890;BME280;68279;48.964;14.502;2023-02-28T06:11:12;97811.44;;;20.81;41.86
78890;BME280;68279;48.964;14.502;2023-02-28T06:13:37;97814.84;;;20.78;41.58
78890;BME280;68279;48.964;14.502;2023-02-28T06:16:03;97821.13;;;20.99;41.97
78890;BME280;68279;48.964;14.502;2023-02-28T06:18:29;97823.50;;;21.01;41.47
78890;BME280;68279;48.964;14.502;2023-02-28T06:20:55;97824.16;;;20.98;40.84
78890;BME280;68279;48.964;14.502;2023-02-28T06:23:21;97828.13;;;21.00;40.18
78890;BME280;68279;48.964;14.502;2023-02-28T06:25:47;97833.75;;;21.04;39.88
78890;BME280;68279;48.964;14.502;2023-02-28T06:28:15;97831.88;;;21.16;39.94
78890;BME280;68279;48.964;14.502;2023-02-28T06:30:43;97838.88;;;21.26;40.01
78890;BME280;68279;48.964;14.502;2023-02-28T06:33:08;97836.47;;;21.25;40.22
78890;BME280;68279;48.964;14.502;2023-02-28T06:35:35;97838.25;;;21.29;40.37
78890;BME280;68279;48.964;14.502;2023-02-28T16:43:05;97867.13;;;1.80;55.16
78890;BME280;68279;48.964;14.502;2023-02-28T16:45:31;97864.47;;;1.53;56.53
78890;BME280;68279;48.964;14.502;2023-02-28T16:47:58;97864.44;;;1.40;57.83
78890;BME280;68279;48.964;14.502;2023-02-28T16:50:29;97863.25;;;1.42;57.89
78890;BME280;68279;48.964;14.502;2023-02-28T16:52:55;97866.91;;;1.75;58.18
78890;BME280;68279;48.964;14.502;2023-02-28T16:55:22;97858.00;;;1.69;56.90
78890;BME280;68279;48.964;14.502;2023-02-28T16:57:54;97861.63;;;1.35;58.11
78890;BME280;68279;48.964;14.502;2023-02-28T17:00:20;97863.03;;;1.24;58.50
78890;BME280;68279;48.964;14.502;2023-02-28T17:02:47;97868.06;;;1.12;59.46
78890;BME280;68279;48.964;14.502;2023-02-28T17:05:13;97869.03;;;1.05;59.19
78890;BME280;68279;48.964;14.502;2023-02-28T17:07:41;97868.47;;;1.09;59.19
78890;BME280;68279;48.964;14.502;2023-02-28T17:10:25;97869.69;;;1.07;58.64
78890;BME280;68279;48.964;14.502;2023-02-28T17:12:51;97867.00;;;0.94;59.22
78890;BME280;68279;48.964;14.502;2023-02-28T17:15:18;97877.06;;;0.77;59.52
78890;BME280;68279;48.964;14.502;2023-02-28T17:17:44;97880.19;;;0.52;60.77
78890;BME280;68279;48.964;14.502;2023-02-28T17:20:16;97887.81;;;0.41;60.93
78890;BME280;68279;48.964;14.502;2023-02-28T17:22:43;97887.94;;;0.26;61.51
78890;BME280;68279;48.964;14.502;2023-02-28T17:25:09;97890.06;;;0.09;61.66
78890;BME280;68279;48.964;14.502;2023-02-28T17:27:36;97892.53;;;-0.11;62.47
78890;BME280;68279;48.964;14.502;2023-02-28T17:30:09;97891.38;;;-0.08;61.84
78890;BME280;68279;48.964;14.502;2023-02-28T17:32:38;97895.31;;;-0.19;62.11
78890;BME280;68279;48.964;14.502;2023-02-28T17:35:04;97896.44;;;-0.28;62.71
78890;BME280;68279;48.964;14.502;2023-02-28T17:37:30;97895.59;;;-0.35;62.58
78890;BME280;68279;48.964;14.502;2023-02-28T17:39:56;97902.34;;;-0.47;63.43
78890;BME280;68279;48.964;14.502;2023-02-28T17:42:21;97900.72;;;-0.48;63.34
78890;BME280;68279;48.964;14.502;2023-02-28T17:44:47;97901.03;;;-0.58;63.42
78890;BME280;68279;48.964;14.502;2023-02-28T17:47:13;97906.16;;;-0.71;64.03
78890;BME280;68279;48.964;14.502;2023-02-28T17:49:39;97901.47;;;-0.76;64.13
78890;BME280;68279;48.964;14.502;2023-02-28T17:52:05;97904.28;;;-0.77;64.41
78890;BME280;68279;48.964;14.502;2023-02-28T17:54:30;97911.97;;;-0.76;64.99
78890;BME280;68279;48.964;14.502;2023-02-28T17:56:56;97903.47;;;-0.78;65.06
78890;BME280;68279;48.964;14.502;2023-02-28T17:59:22;97900.41;;;-0.81;65.14
78890;BME280;68279;48.964;14.502;2023-02-28T18:01:47;97890.94;;;-0.97;65.76
78890;BME280;68279;48.964;14.502;2023-02-28T18:04:13;97897.38;;;-1.00;66.29
78890;BME280;68279;48.964;14.502;2023-02-28T18:06:43;97903.38;;;-1.06;66.34
78890;BME280;68279;48.964;14.502;2023-02-28T18:09:17;97896.03;;;-1.10;66.68
78890;BME280;68279;48.964;14.502;2023-02-28T18:11:44;97899.22;;;-1.15;67.04
78890;BME280;68279;48.964;14.502;2023-02-28T18:14:17;97902.31;;;-1.26;67.87
78890;BME280;68279;48.964;14.502;2023-02-28T18:16:43;97897.25;;;-1.43;68.47
78890;BME280;68279;48.964;14.502;2023-02-28T18:19:09;97895.47;;;-1.57;69.08
78890;BME280;68279;48.964;14.502;2023-02-28T18:21:50;97900.81;;;-1.80;70.35
78890;BME280;68279;48.964;14.502;2023-02-28T18:24:17;97901.41;;;-2.07;72.34
78890;BME280;68279;48.964;14.502;2023-02-28T18:26:44;97897.69;;;-2.13;72.85
78890;BME280;68279;48.964;14.502;2023-02-28T18:29:19;97903.84;;;-2.20;72.63
78890;BME280;68279;48.964;14.502;2023-02-28T18:31:46;97905.72;;;-2.29;73.32
78890;BME280;68279;48.964;14.502;2023-02-28T18:34:13;97908.56;;;-2.39;73.36
78890;BME280;68279;48.964;14.502;2023-02-28T18:36:39;97898.88;;;-2.53;73.94
78890;BME280;68279;48.964;14.502;2023-02-28T18:39:07;97905.41;;;-2.57;75.24
78890;BME280;68279;48.964;14.502;2023-02-28T18:41:33;97901.59;;;-2.69;75.33
78890;BME280;68279;48.964;14.502;2023-02-28T18:43:59;97901.69;;;-2.86;75.83
78890;BME280;68279;48.964;14.502;2023-02-28T18:46:27;97894.25;;;-2.97;76.61
78890;BME280;68279;48.964;14.502;2023-02-28T18:48:52;97897.41;;;-3.09;76.86
78890;BME280;68279;48.964;14.502;2023-02-28T18:51:22;97900.09;;;-3.18;77.64
78890;BME280;68279;48.964;14.502;2023-02-28T18:53:48;97897.63;;;-3.19;77.87
78890;BME280;68279;48.964;14.502;2023-02-28T18:56:16;97893.56;;;-3.22;78.76
78890;BME280;68279;48.964;14.502;2023-02-28T18:58:43;97893.28;;;-3.27;78.61
78890;BME280;68279;48.964;14.502;2023-02-28T19:01:21;97889.22;;;-3.37;79.02
78890;BME280;68279;48.964;14.502;2023-02-28T19:03:48;97895.13;;;-3.35;78.79
78890;BME280;68279;48.964;14.502;2023-02-28T19:06:15;97899.81;;;-3.31;78.60
78890;BME280;68279;48.964;14.502;2023-02-28T19:08:42;97899.66;;;-3.29;78.51
78890;BME280;68279;48.964;14.502;2023-02-28T19:11:17;97905.72;;;-3.37;78.21
78890;BME280;68279;48.964;14.502;2023-02-28T19:13:43;97902.97;;;-3.35;78.73
78890;BME280;68279;48.964;14.502;2023-02-28T19:16:11;97905.22;;;-3.32;78.67
78890;BME280;68279;48.964;14.502;2023-02-28T19:18:38;97898.91;;;-3.46;78.95
78890;BME280;68279;48.964;14.502;2023-02-28T19:21:09;97902.56;;;-3.63;80.79
78890;BME280;68279;48.964;14.502;2023-02-28T19:23:35;97901.47;;;-3.69;80.78
78890;BME280;68279;48.964;14.502;2023-02-28T19:26:08;97911.59;;;-3.82;81.18
78890;BME280;68279;48.964;14.502;2023-02-28T19:28:34;97913.38;;;-3.75;81.15
78890;BME280;68279;48.964;14.502;2023-02-28T19:31:00;97909.31;;;-3.69;81.02
78890;BME280;68279;48.964;14.502;2023-02-28T19:33:26;97911.91;;;-3.69;80.63
78890;BME280;68279;48.964;14.502;2023-02-28T19:35:52;97904.56;;;-3.74;80.14
78890;BME280;68279;48.964;14.502;2023-02-28T19:38:17;97906.38;;;-3.74;80.24
78890;BME280;68279;48.964;14.502;2023-02-28T19:40:43;97901.06;;;-3.97;80.01
78890;BME280;68279;48.964;14.502;2023-02-28T19:43:09;97902.19;;;-4.08;80.71
78890;BME280;68279;48.964;14.502;2023-02-28T19:45:36;97904.69;;;-4.22;81.43
78890;BME280;68279;48.964;14.502;2023-02-28T19:48:03;97898.47;;;-4.21;81.99
78890;BME280;68279;48.964;14.502;2023-02-28T19:50:28;97898.63;;;-4.15;82.09
78890;BME280;68279;48.964;14.502;2023-02-28T19:52:55;97904.97;;;-4.17;82.30
78890;BME280;68279;48.964;14.502;2023-02-28T19:55:20;97903.88;;;-4.23;82.29
78890;BME280;68279;48.964;14.502;2023-02-28T19:57:46;97910.22;;;-4.25;82.23
78890;BME280;68279;48.964;14.502;2023-02-28T20:00:14;97904.50;;;-4.13;82.35
78890;BME280;68279;48.964;14.502;2023-02-28T20:02:40;97905.94;;;-3.94;82.23
78890;BME280;68279;48.964;14.502;2023-02-28T20:05:07;97911.97;;;-3.85;81.50
78890;BME280;68279;48.964;14.502;2023-02-28T20:07:44;97906.34;;;-3.66;80.09
78890;BME280;68279;48.964;14.502;2023-02-28T20:10:10;97913.84;;;-3.63;80.17
78890;BME280;68279;48.964;14.502;2023-02-28T20:12:40;97913.50;;;-3.52;79.93
78890;BME280;68279;48.964;14.502;2023-02-28T20:15:07;97914.16;;;-3.58;80.08
78890;BME280;68279;48.964;14.502;2023-02-28T20:17:33;97907.69;;;-3.78;80.35
78890;BME280;68279;48.964;14.502;2023-02-28T20:19:59;97911.97;;;-3.93;81.33
78890;BME280;68279;48.964;14.502;2023-02-28T20:22:25;97907.09;;;-4.05;81.67
78890;BME280;68279;48.964;14.502;2023-02-28T20:24:51;97903.00;;;-4.15;82.49
78890;BME280;68279;48.964;14.502;2023-02-28T20:27:18;97906.28;;;-4.05;82.46
78890;BME280;68279;48.964;14.502;2023-02-28T20:29:43;97902.53;;;-4.11;82.56
78890;BME280;68279;48.964;14.502;2023-02-28T20:32:09;97892.25;;;-4.12;83.04
78890;BME280;68279;48.964;14.502;2023-02-28T20:34:35;97897.47;;;-4.04;83.06
78890;BME280;68279;48.964;14.502;2023-02-28T20:37:00;97897.94;;;-4.01;83.48
78890;BME280;68279;48.964;14.502;2023-02-28T20:39:26;97895.69;;;-4.28;82.93
78890;BME280;68279;48.964;14.502;2023-02-28T20:41:51;97898.47;;;-4.62;84.26
78890;BME280;68279;48.964;14.502;2023-02-28T20:44:18;97897.50;;;-4.69;85.61
78890;BME280;68279;48.964;14.502;2023-02-28T20:46:44;97900.78;;;-4.59;85.94
78890;BME280;68279;48.964;14.502;2023-02-28T20:49:10;97887.69;;;-4.18;84.64
78890;BME280;68279;48.964;14.502;2023-02-28T20:51:36;97890.28;;;-4.02;83.39
78890;BME280;68279;48.964;14.502;2023-02-28T20:54:05;97879.47;;;-3.91;82.98
78890;BME280;68279;48.964;14.502;2023-02-28T20:56:32;97880.25;;;-3.82;82.56
78890;BME280;68279;48.964;14.502;2023-02-28T20:58:57;97872.41;;;-3.82;82.33
78890;BME280;68279;48.964;14.502;2023-02-28T21:01:27;97882.25;;;-3.92;82.81
78890;BME280;68279;48.964;14.502;2023-02-28T21:03:58;97876.41;;;-4.11;83.60
78890;BME280;68279;48.964;14.502;2023-02-28T21:06:28;97888.81;;;-4.05;83.81
78890;BME280;68279;48.964;14.502;2023-02-28T21:08:55;97881.50;;;-4.34;83.45
78890;BME280;68279;48.964;14.502;2023-02-28T21:11:23;97887.56;;;-4.66;84.87
78890;BME280;68279;48.964;14.502;2023-02-28T21:13:50;97888.47;;;-5.07;85.62
78890;BME280;68279;48.964;14.502;2023-02-28T21:16:18;97883.28;;;-4.99;86.56
78890;BME280;68279;48.964;14.502;2023-02-28T21:18:46;97889.47;;;-5.00;86.88
78890;BME280;68279;48.964;14.502;2023-02-28T21:21:14;97885.09;;;-4.92;87.10
78890;BME280;68279;48.964;14.502;2023-02-28T21:23:41;97897.81;;;-4.80;87.19
78890;BME280;68279;48.964;14.502;2023-02-28T21:26:10;97891.78;;;-4.73;86.93
78890;BME280;68279;48.964;14.502;2023-02-28T21:28:37;97892.25;;;-4.77;86.11
78890;BME280;68279;48.964;14.502;2023-02-28T21:31:13;97888.84;;;-4.70;86.33
78890;BME280;68279;48.964;14.502;2023-02-28T21:33:40;97894.22;;;-4.88;86.17
78890;BME280;68279;48.964;14.502;2023-02-28T21:36:09;97881.00;;;-5.10;86.38
78890;BME280;68279;48.964;14.502;2023-02-28T21:38:36;97886.66;;;-5.23;86.86
78890;BME280;68279;48.964;14.502;2023-02-28T21:41:13;97880.78;;;-5.25;87.88
78890;BME280;68279;48.964;14.502;2023-02-28T21:43:40;97895.44;;;-5.32;87.83
78890;BME280;68279;48.964;14.502;2023-02-28T21:46:11;97893.28;;;-5.45;89.01
78890;BME280;68279;48.964;14.502;2023-02-28T21:48:38;97888.25;;;-5.38;89.70
78890;BME280;68279;48.964;14.502;2023-02-28T21:51:10;97897.91;;;-5.23;89.33
78890;BME280;68279;48.964;14.502;2023-02-28T21:53:37;97893.59;;;-5.40;89.74
78890;BME280;68279;48.964;14.502;2023-02-28T21:56:15;97896.19;;;-5.56;89.99
78890;BME280;68279;48.964;14.502;2023-02-28T21:58:41;97891.81;;;-5.48;90.15
78890;BME280;68279;48.964;14.502;2023-02-28T22:01:10;97901.06;;;-5.53;90.09
78890;BME280;68279;48.964;14.502;2023-02-28T22:03:37;97896.19;;;-5.48;89.97
78890;BME280;68279;48.964;14.502;2023-02-28T22:06:10;97896.28;;;-5.66;89.69
78890;BME280;68279;48.964;14.502;2023-02-28T22:08:38;97904.94;;;-6.00;90.04
78890;BME280;68279;48.964;14.502;2023-02-28T22:11:04;97901.41;;;-5.90;90.72
78890;BME280;68279;48.964;14.502;2023-02-28T22:13:32;97902.91;;;-5.80;90.53
78890;BME280;68279;48.964;14.502;2023-02-28T22:16:12;97897.16;;;-5.83;90.67
78890;BME280;68279;48.964;14.502;2023-02-28T22:18:38;97896.50;;;-5.51;91.42
78890;BME280;68279;48.964;14.502;2023-02-28T22:21:05;97894.53;;;-5.57;90.78
78890;BME280;68279;48.964;14.502;2023-02-28T22:23:34;97898.22;;;-5.68;91.24
78890;BME280;68279;48.964;14.502;2023-02-28T22:26:00;97897.53;;;-5.78;91.44
78890;BME280;68279;48.964;14.502;2023-02-28T22:28:27;97900.31;;;-6.14;91.56
78890;BME280;68279;48.964;14.502;2023-02-28T22:30:57;97904.44;;;-6.03;92.05
78890;BME280;68279;48.964;14.502;2023-02-28T22:33:24;97900.63;;;-5.83;91.58
78890;BME280;68279;48.964;14.502;2023-02-28T22:35:50;97901.81;;;-6.03;91.99
78890;BME280;68279;48.964;14.502;2023-02-28T22:38:16;97905.28;;;-6.20;91.75
78890;BME280;68279;48.964;14.502;2023-02-28T22:40:42;97907.75;;;-6.19;93.03
78890;BME280;68279;48.964;14.502;2023-02-28T22:43:08;97907.06;;;-5.95;93.15
78890;BME280;68279;48.964;14.502;2023-02-28T22:45:38;97894.78;;;-5.77;93.25
78890;BME280;68279;48.964;14.502;2023-02-28T22:48:06;97897.75;;;-5.72;92.88
78890;BME280;68279;48.964;14.502;2023-02-28T22:50:32;97900.78;;;-6.10;92.92
78890;BME280;68279;48.964;14.502;2023-02-28T22:52:58;97901.59;;;-6.10;93.24
78890;BME280;68279;48.964;14.502;2023-02-28T22:55:24;97899.91;;;-6.27;92.95
78890;BME280;68279;48.964;14.502;2023-02-28T22:57:53;97904.03;;;-6.42;93.44
78890;BME280;68279;48.964;14.502;2023-02-28T23:00:19;97896.06;;;-6.41;93.49
78890;BME280;68279;48.964;14.502;2023-02-28T23:02:45;97901.91;;;-6.39;94.31
78890;BME280;68279;48.964;14.502;2023-02-28T23:05:12;97896.72;;;-6.39;94.04
78890;BME280;68279;48.964;14.502;2023-02-28T23:07:39;97899.19;;;-6.55;94.01
78890;BME280;68279;48.964;14.502;2023-02-28T23:10:07;97905.44;;;-6.22;94.19
78890;BME280;68279;48.964;14.502;2023-02-28T23:12:33;97908.97;;;-6.05;94.34
78890;BME280;68279;48.964;14.502;2023-02-28T23:14:59;97906.94;;;-6.19;93.93
78890;BME280;68279;48.964;14.502;2023-02-28T23:17:25;97909.94;;;-6.32;93.40
78890;BME280;68279;48.964;14.502;2023-02-28T23:19:50;97913.16;;;-6.12;93.54
78890;BME280;68279;48.964;14.502;2023-02-28T23:22:16;97914.34;;;-6.07;92.83
78890;BME280;68279;48.964;14.502;2023-02-28T23:24:41;97910.44;;;-6.29;92.19
78890;BME280;68279;48.964;14.502;2023-02-28T23:27:07;97917.31;;;-6.45;92.51
78890;BME280;68279;48.964;14.502;2023-02-28T23:29:34;97906.09;;;-6.64;92.94
78890;BME280;68279;48.964;14.502;2023-02-28T23:32:00;97913.00;;;-6.54;92.78
78890;BME280;68279;48.964;14.502;2023-02-28T23:34:25;97906.00;;;-6.36;92.43
78890;BME280;68279;48.964;14.502;2023-02-28T23:36:54;97907.94;;;-6.38;92.20
78890;BME280;68279;48.964;14.502;2023-02-28T23:39:20;97908.38;;;-6.69;92.52
78890;BME280;68279;48.964;14.502;2023-02-28T23:41:46;97909.75;;;-6.57;92.76
78890;BME280;68279;48.964;14.502;2023-02-28T23:44:12;97914.66;;;-6.36;93.13
78890;BME280;68279;48.964;14.502;2023-02-28T23:46:45;97910.69;;;-6.40;93.62
78890;BME280;68279;48.964;14.502;2023-02-28T23:49:11;97916.34;;;-6.26;93.44
78890;BME280;68279;48.964;14.502;2023-02-28T23:51:37;97918.56;;;-6.32;93.88
78890;BME280;68279;48.964;14.502;2023-02-28T23:54:03;97913.81;;;-6.10;94.45
78890;BME280;68279;48.964;14.502;2023-02-28T23:56:30;97913.84;;;-6.28;94.29
78890;BME280;68279;48.964;14.502;2023-02-28T23:58:56;97912.03;;;-6.36;94.51
